Time;durP1;ratioP1;P1;durP2;ratioP2;P2;SDS_P1;SDS_P2;PMS_P1;PMS_P2;Temp;Humidity;BMP_temperature;BMP_pressure;BME280_temperature;BME280_humidity;BME280_pressure;Samples;Min_cycle;Max_cycle;Signal;HPM_P1;HPM_P2
2022/09/30 00:00:04;;;;;;;0.10;0.10;;;;;;;3.77;100.00;95748.81;4964590;28;20423;-76
2022/09/30 00:02:54;;;;;;;0.10;0.10;;;;;;;3.69;100.00;95751.78;4966202;28;20038;-77
2022/09/30 00:05:40;;;;;;;0.10;0.10;;;;;;;3.67;100.00;95766.25;4966803;28;20133;-77
2022/09/30 00:08:26;;;;;;;0.10;0.10;;;;;;;3.72;100.00;95764.53;4967932;28;20707;-77
2022/09/30 00:11:15;;;;;;;0.10;0.10;;;;;;;3.75;100.00;95765.97;4967248;28;20044;-76
2022/09/30 00:14:01;;;;;;;0.10;0.10;;;;;;;3.79;100.00;95761.81;4966452;28;20097;-77
2022/09/30 00:16:48;;;;;;;0.10;0.10;;;;;;;3.74;100.00;95761.69;4954191;28;20057;-77
2022/09/30 00:19:34;;;;;;;0.10;0.10;;;;;;;3.79;100.00;95759.97;4965447;28;20534;-76
2022/09/30 00:22:19;;;;;;;0.10;0.10;;;;;;;3.82;100.00;95756.09;4970372;28;20038;-76
2022/09/30 00:25:05;;;;;;;0.13;0.10;;;;;;;3.74;100.00;95756.41;4954273;28;20074;-77
2022/09/30 00:27:51;;;;;;;0.10;0.10;;;;;;;3.72;100.00;95761.09;4968712;28;20048;-76
2022/09/30 00:30:37;;;;;;;0.10;0.10;;;;;;;3.54;100.00;95752.16;4966780;28;20494;-76
2022/09/30 00:33:23;;;;;;;0.10;0.10;;;;;;;3.45;100.00;95766.69;4969554;28;20161;-76
2022/09/30 00:36:09;;;;;;;0.10;0.10;;;;;;;3.38;100.00;95763.31;4969120;28;20049;-77
2022/09/30 00:38:55;;;;;;;0.30;0.10;;;;;;;3.29;100.00;95754.88;4969710;28;20042;-76
2022/09/30 00:41:42;;;;;;;0.10;0.10;;;;;;;3.37;100.00;95763.53;4982712;28;20102;-76
2022/09/30 00:44:49;;;;;;;0.10;0.10;;;;;;;3.31;100.00;95766.03;4984460;28;20039;-75
2022/09/30 00:47:38;;;;;;;0.10;0.10;;;;;;;3.23;100.00;95771.59;4962972;28;20042;-76
2022/09/30 00:50:26;;;;;;;0.10;0.10;;;;;;;3.25;100.00;95774.03;4956020;28;20489;-77
2022/09/30 00:53:38;;;;;;;0.10;0.10;;;;;;;3.31;100.00;95773.16;4956720;28;20053;-76
2022/09/30 00:56:28;;;;;;;0.10;0.10;;;;;;;3.31;100.00;95770.50;4968400;28;20121;-76
2022/09/30 00:59:21;;;;;;;0.10;0.10;;;;;;;3.24;100.00;95772.41;4967882;28;20545;-77
2022/09/30 01:02:09;;;;;;;0.10;0.10;;;;;;;3.36;100.00;95775.97;4968230;28;20058;-77
2022/09/30 01:04:55;;;;;;;0.20;0.13;;;;;;;3.40;100.00;95774.47;4968347;28;20039;-77
2022/09/30 01:07:42;;;;;;;0.10;0.10;;;;;;;3.39;100.00;95772.88;4966602;28;20424;-77
2022/09/30 01:10:28;;;;;;;0.10;0.10;;;;;;;3.34;100.00;95778.78;4965439;28;20042;-76
2022/09/30 01:13:17;;;;;;;0.10;0.10;;;;;;;3.27;100.00;95775.44;4966643;28;20050;-76
2022/09/30 01:16:38;;;;;;;0.10;0.10;;;;;;;3.32;100.00;95769.47;4968353;28;20743;-75
2022/09/30 01:19:33;;;;;;;0.20;0.13;;;;;;;3.36;100.00;95773.31;4967683;28;20125;-75
2022/09/30 01:22:37;;;;;;;0.10;0.10;;;;;;;3.38;100.00;95776.53;4968068;28;20042;-75
2022/09/30 01:25:46;;;;;;;0.10;0.10;;;;;;;3.29;100.00;95781.31;4963248;28;20038;-75
2022/09/30 01:29:17;;;;;;;0.10;0.10;;;;;;;3.31;100.00;95786.38;4966021;28;20053;-75
2022/09/30 01:32:29;;;;;;;0.10;0.10;;;;;;;3.31;100.00;95789.81;4909346;29;20334;-75
2022/09/30 01:35:33;;;;;;;0.10;0.10;;;;;;;3.27;100.00;95785.22;4968384;28;20038;-75
2022/09/30 01:38:28;;;;;;;0.10;0.10;;;;;;;3.17;100.00;95787.53;4965554;28;20308;-75
2022/09/30 01:41:20;;;;;;;0.10;0.10;;;;;;;3.09;100.00;95783.31;4967420;28;20097;-75
2022/09/30 01:44:48;;;;;;;0.10;0.10;;;;;;;3.10;100.00;95786.78;4965436;28;20478;-75
2022/09/30 01:48:09;;;;;;;0.10;0.10;;;;;;;3.18;100.00;95786.50;4951557;28;20521;-75
2022/09/30 01:51:00;;;;;;;0.10;0.10;;;;;;;3.16;100.00;95784.06;4959559;28;20501;-75
2022/09/30 01:53:59;;;;;;;0.10;0.10;;;;;;;3.24;100.00;95775.84;4967735;28;20544;-75
2022/09/30 01:56:51;;;;;;;0.10;0.10;;;;;;;3.35;100.00;95783.09;4965680;28;20150;-75
2022/09/30 02:00:06;;;;;;;0.10;0.10;;;;;;;3.35;100.00;95780.44;4967416;28;20121;-75
2022/09/30 02:02:59;;;;;;;0.10;0.10;;;;;;;3.34;100.00;95783.28;4956242;28;20672;-75
2022/09/30 02:06:08;;;;;;;0.10;0.10;;;;;;;3.25;100.00;95781.94;4967011;28;20051;-76
2022/09/30 02:09:13;;;;;;;0.10;0.10;;;;;;;3.23;100.00;95774.25;4968362;28;20444;-75
2022/09/30 02:12:03;;;;;;;0.10;0.10;;;;;;;3.26;100.00;95784.38;4965027;28;20053;-76
2022/09/30 02:14:58;;;;;;;0.10;0.10;;;;;;;3.23;100.00;95784.00;4965245;28;20041;-76
2022/09/30 02:17:49;;;;;;;0.10;0.10;;;;;;;3.05;100.00;95790.91;4966943;28;20044;-76
2022/09/30 02:20:42;;;;;;;0.10;0.10;;;;;;;3.06;100.00;95787.22;4967577;28;20046;-75
2022/09/30 02:23:32;;;;;;;0.10;0.10;;;;;;;3.00;100.00;95793.38;4966146;28;20133;-76
2022/09/30 02:26:23;;;;;;;0.10;0.10;;;;;;;3.01;100.00;95799.47;4966544;28;20045;-76
2022/09/30 02:29:20;;;;;;;0.10;0.10;;;;;;;3.02;100.00;95799.25;4955764;28;20560;-76
2022/09/30 02:32:17;;;;;;;0.10;0.10;;;;;;;2.97;100.00;95806.22;4966932;28;20046;-76
2022/09/30 02:35:22;;;;;;;0.10;0.10;;;;;;;2.93;100.00;95800.53;4964723;28;20058;-76
2022/09/30 02:38:14;;;;;;;0.10;0.10;;;;;;;2.85;100.00;95800.00;4940295;28;20100;-76
2022/09/30 02:41:06;;;;;;;0.10;0.10;;;;;;;2.93;100.00;95803.19;4964576;28;20049;-76
2022/09/30 02:43:54;;;;;;;0.17;0.17;;;;;;;2.95;100.00;95805.59;4956906;28;20129;-76
2022/09/30 02:46:55;;;;;;;0.10;0.10;;;;;;;3.02;100.00;95796.59;4951860;28;20061;-76
2022/09/30 02:49:50;;;;;;;0.10;0.10;;;;;;;3.05;100.00;95798.81;4963895;28;20065;-76
2022/09/30 02:52:49;;;;;;;0.10;0.10;;;;;;;3.06;100.00;95795.16;4967702;28;20046;-76
2022/09/30 02:56:03;;;;;;;0.10;0.10;;;;;;;3.00;100.00;95790.72;4968260;28;20070;-76
2022/09/30 02:58:51;;;;;;;0.10;0.10;;;;;;;2.92;100.00;95809.50;4965897;28;20801;-76
2022/09/30 03:01:40;;;;;;;0.10;0.10;;;;;;;2.79;100.00;95799.84;4970401;28;20061;-75
2022/09/30 03:04:32;;;;;;;0.10;0.10;;;;;;;2.77;100.00;95812.47;4964826;28;20859;-76
2022/09/30 03:07:18;;;;;;;0.10;0.10;;;;;;;2.72;100.00;95811.47;4965950;28;20240;-76
2022/09/30 03:10:12;;;;;;;0.10;0.10;;;;;;;2.74;100.00;95814.75;4966430;28;20059;-75
2022/09/30 03:13:17;;;;;;;0.10;0.10;;;;;;;2.80;100.00;95805.94;4967000;28;20407;-75
2022/09/30 03:16:36;;;;;;;0.10;0.10;;;;;;;2.80;100.00;95811.22;4966657;28;20042;-76
2022/09/30 03:19:41;;;;;;;0.10;0.10;;;;;;;2.76;100.00;95818.78;4966205;28;20051;-75
2022/09/30 03:22:35;;;;;;;0.10;0.10;;;;;;;2.69;100.00;95819.84;4963743;28;20053;-75
2022/09/30 03:25:46;;;;;;;0.10;0.10;;;;;;;2.60;100.00;95836.97;4951886;28;20582;-76
2022/09/30 03:28:40;;;;;;;0.10;0.10;;;;;;;2.67;100.00;95838.56;4966154;28;20049;-76
2022/09/30 03:31:41;;;;;;;0.10;0.10;;;;;;;2.72;100.00;95843.19;4966019;28;20397;-76
2022/09/30 03:34:49;;;;;;;0.10;0.10;;;;;;;2.74;100.00;95849.09;4967126;28;20058;-76
2022/09/30 03:37:45;;;;;;;0.10;0.10;;;;;;;2.74;100.00;95849.09;4966596;28;20042;-75
2022/09/30 03:40:56;;;;;;;0.10;0.10;;;;;;;2.66;100.00;95846.72;4953127;28;20038;-75
2022/09/30 03:43:53;;;;;;;0.10;0.10;;;;;;;2.58;100.00;95849.59;4971917;28;20059;-76
2022/09/30 03:46:45;;;;;;;0.10;0.10;;;;;;;2.48;100.00;95856.13;4970867;28;20279;-75
2022/09/30 03:49:39;;;;;;;0.20;0.20;;;;;;;2.43;100.00;95857.81;4970842;28;20184;-76
2022/09/30 03:52:26;;;;;;;0.10;0.10;;;;;;;2.42;100.00;95864.94;4970428;28;20034;-75
2022/09/30 03:55:12;;;;;;;0.10;0.10;;;;;;;2.50;100.00;95864.69;4969654;28;20504;-76
2022/09/30 03:57:58;;;;;;;0.10;0.10;;;;;;;2.48;100.00;95850.03;4971120;28;20043;-75
2022/09/30 04:00:49;;;;;;;0.32;0.10;;;;;;;2.54;100.00;95866.88;4973001;28;20394;-75
2022/09/30 04:03:35;;;;;;;0.10;0.10;;;;;;;2.55;100.00;95868.50;4985153;28;20061;-75
2022/09/30 04:06:24;;;;;;;0.10;0.10;;;;;;;2.51;100.00;95879.50;4990420;28;20181;-76
2022/09/30 04:09:10;;;;;;;0.20;0.10;;;;;;;2.45;100.00;95882.16;4987933;28;20070;-75
2022/09/30 04:11:56;;;;;;;0.10;0.10;;;;;;;2.43;100.00;95889.50;4973481;28;20047;-76
2022/09/30 04:14:42;;;;;;;0.20;0.15;;;;;;;2.45;100.00;95896.19;4972966;28;20042;-75
2022/09/30 04:17:27;;;;;;;0.10;0.10;;;;;;;2.37;100.00;95890.34;4955699;28;20388;-75
2022/09/30 04:20:13;;;;;;;0.10;0.10;;;;;;;2.36;100.00;95897.47;4971438;28;20514;-75
2022/09/30 04:23:00;;;;;;;0.10;0.10;;;;;;;2.43;100.00;95890.31;4971207;28;20322;-75
2022/09/30 04:25:54;;;;;;;0.10;0.10;;;;;;;2.46;100.00;95892.53;4970215;28;20448;-76
2022/09/30 04:28:40;;;;;;;0.10;0.10;;;;;;;2.56;100.00;95883.31;4955607;28;20042;-76
2022/09/30 04:31:28;;;;;;;0.10;0.10;;;;;;;2.48;100.00;95890.47;4967045;28;20210;-75
2022/09/30 04:34:14;;;;;;;0.10;0.10;;;;;;;2.42;100.00;95893.16;4970268;28;20050;-75
2022/09/30 04:37:00;;;;;;;0.10;0.10;;;;;;;2.47;100.00;95890.69;4970257;28;20129;-75
2022/09/30 04:39:46;;;;;;;0.10;0.10;;;;;;;2.49;100.00;95894.75;4970042;28;20490;-75
2022/09/30 04:42:32;;;;;;;0.13;0.13;;;;;;;2.50;100.00;95899.00;4967898;28;20053;-75
2022/09/30 04:45:19;;;;;;;0.10;0.10;;;;;;;2.42;100.00;95899.25;4967279;28;20062;-75
2022/09/30 04:48:05;;;;;;;0.10;0.10;;;;;;;2.39;100.00;95896.22;4934291;28;20241;-75
2022/09/30 04:50:51;;;;;;;0.10;0.10;;;;;;;2.38;100.00;95897.25;4951157;28;20488;-75
2022/09/30 04:53:37;;;;;;;0.10;0.10;;;;;;;2.33;100.00;95900.50;4954184;28;20512;-75
2022/09/30 04:56:25;;;;;;;0.10;0.10;;;;;;;2.28;100.00;95905.63;4952330;28;20518;-75
2022/09/30 04:59:11;;;;;;;0.10;0.10;;;;;;;2.18;100.00;95913.19;4949840;28;20039;-75
2022/09/30 05:01:56;;;;;;;0.10;0.10;;;;;;;2.06;100.00;95904.28;4951351;28;20055;-75
2022/09/30 05:04:47;;;;;;;0.10;0.10;;;;;;;2.00;100.00;95916.47;4953451;28;20531;-75
2022/09/30 05:07:33;;;;;;;0.10;0.10;;;;;;;2.07;100.00;95917.25;4952870;28;20105;-75
2022/09/30 05:10:19;;;;;;;0.10;0.10;;;;;;;2.16;100.00;95923.13;4947590;28;20043;-75
2022/09/30 05:13:04;;;;;;;0.20;0.13;;;;;;;2.23;100.00;95931.81;4951456;28;20146;-75
2022/09/30 05:15:50;;;;;;;0.10;0.10;;;;;;;2.28;100.00;95929.38;4950157;28;20102;-76
2022/09/30 05:18:38;;;;;;;0.20;0.20;;;;;;;2.27;100.00;95927.75;4951227;28;20038;-75
2022/09/30 05:21:24;;;;;;;0.10;0.10;;;;;;;2.30;100.00;95937.09;4950703;28;20387;-76
2022/09/30 05:24:09;;;;;;;0.10;0.10;;;;;;;2.24;100.00;95930.81;4949241;28;20536;-75
2022/09/30 05:26:55;;;;;;;0.20;0.10;;;;;;;2.30;100.00;95918.59;4950608;28;20046;-75
2022/09/30 05:29:41;;;;;;;0.10;0.10;;;;;;;2.36;100.00;95931.78;4950442;28;20043;-75
2022/09/30 05:32:27;;;;;;;0.10;0.10;;;;;;;2.43;100.00;95929.94;4935719;28;20050;-75
2022/09/30 05:35:13;;;;;;;0.10;0.10;;;;;;;2.50;100.00;95936.00;4948595;28;20623;-75
2022/09/30 05:38:00;;;;;;;0.10;0.10;;;;;;;2.54;100.00;95943.47;4951130;28;20307;-75
2022/09/30 05:40:46;;;;;;;0.15;0.10;;;;;;;2.51;100.00;95944.72;4949687;28;20568;-75
2022/09/30 05:43:32;;;;;;;0.10;0.10;;;;;;;2.48;100.00;95948.56;4950485;28;20118;-75
2022/09/30 05:46:18;;;;;;;0.10;0.10;;;;;;;2.49;100.00;95949.38;4951190;28;20053;-75
2022/09/30 05:49:04;;;;;;;0.10;0.10;;;;;;;2.55;100.00;95953.03;4967744;28;20079;-75
2022/09/30 05:51:50;;;;;;;0.10;0.10;;;;;;;2.52;100.00;95956.91;4969435;28;20035;-75
2022/09/30 05:54:36;;;;;;;0.10;0.10;;;;;;;2.59;100.00;95962.97;4971216;28;20043;-75
2022/09/30 05:57:22;;;;;;;0.10;0.10;;;;;;;2.62;100.00;95967.81;4968757;28;20301;-75
2022/09/30 06:00:09;;;;;;;0.13;0.13;;;;;;;2.61;100.00;95960.91;4966275;28;20517;-75
2022/09/30 06:02:58;;;;;;;0.10;0.10;;;;;;;2.72;100.00;95970.84;4954312;28;20506;-76
2022/09/30 06:05:44;;;;;;;0.10;0.10;;;;;;;2.74;100.00;95974.09;4969491;28;20167;-75
2022/09/30 06:08:30;;;;;;;0.10;0.10;;;;;;;2.67;100.00;95975.94;4958812;28;20038;-75
2022/09/30 06:11:20;;;;;;;0.10;0.10;;;;;;;2.70;100.00;95982.63;4969586;28;20565;-75
2022/09/30 06:14:06;;;;;;;0.20;0.20;;;;;;;2.76;100.00;95990.53;4968022;28;20057;-75
2022/09/30 06:16:52;;;;;;;0.10;0.10;;;;;;;2.80;100.00;95982.97;4965367;28;20073;-75
2022/09/30 06:19:39;;;;;;;0.10;0.10;;;;;;;2.83;100.00;95974.66;4968709;28;20039;-75
2022/09/30 06:22:25;;;;;;;0.10;0.10;;;;;;;2.91;100.00;95977.03;4967988;28;20054;-75
2022/09/30 06:25:11;;;;;;;0.10;0.10;;;;;;;3.01;100.00;95982.66;4967975;28;20034;-75
2022/09/30 06:27:58;;;;;;;0.20;0.20;;;;;;;3.02;100.00;95984.28;4969154;28;20141;-75
2022/09/30 06:30:44;;;;;;;0.20;0.20;;;;;;;3.07;100.00;95988.94;4968782;28;20038;-75
2022/09/30 06:33:30;;;;;;;0.10;0.10;;;;;;;3.06;100.00;96000.53;4955897;28;20629;-75
2022/09/30 06:36:17;;;;;;;0.10;0.10;;;;;;;3.17;100.00;96013.06;4957940;28;20092;-75
2022/09/30 06:39:03;;;;;;;0.20;0.20;;;;;;;3.29;100.00;96015.88;4953582;28;20146;-75
2022/09/30 06:41:49;;;;;;;0.10;0.10;;;;;;;3.41;100.00;96014.13;4969520;28;20441;-75
2022/09/30 06:44:44;;;;;;;0.10;0.10;;;;;;;3.49;100.00;96005.94;4955363;28;20085;-75
2022/09/30 06:47:32;;;;;;;0.10;0.10;;;;;;;3.64;100.00;96008.28;4958461;28;20267;-75
2022/09/30 06:50:17;;;;;;;0.10;0.10;;;;;;;3.78;100.00;96014.28;4967370;28;20194;-75
2022/09/30 06:53:05;;;;;;;0.10;0.10;;;;;;;3.87;100.00;96018.28;4969872;28;20078;-75
2022/09/30 06:55:55;;;;;;;0.10;0.10;;;;;;;3.98;100.00;96012.28;4967955;28;20130;-76
2022/09/30 06:58:42;;;;;;;0.10;0.10;;;;;;;4.13;100.00;96018.06;4968668;28;20306;-75
2022/09/30 07:01:28;;;;;;;0.10;0.10;;;;;;;4.25;100.00;96014.66;4955521;28;20144;-75
2022/09/30 07:04:15;;;;;;;0.10;0.10;;;;;;;4.38;100.00;96015.34;4964475;28;20038;-75
2022/09/30 07:07:01;;;;;;;0.10;0.10;;;;;;;4.46;100.00;96011.59;4967305;28;20464;-75
2022/09/30 07:09:47;;;;;;;0.10;0.10;;;;;;;4.74;100.00;96032.25;4967493;28;20042;-75
2022/09/30 07:12:33;;;;;;;0.20;0.20;;;;;;;4.90;100.00;96029.03;4968598;28;20042;-75
2022/09/30 07:15:22;;;;;;;0.10;0.10;;;;;;;5.05;100.00;96039.22;4969719;28;20295;-75
2022/09/30 07:18:08;;;;;;;0.10;0.10;;;;;;;5.19;100.00;96030.06;4967709;28;20046;-75
2022/09/30 07:20:55;;;;;;;0.10;0.10;;;;;;;5.28;100.00;96030.56;4966423;28;20050;-76
2022/09/30 07:23:46;;;;;;;0.17;0.13;;;;;;;5.38;100.00;96036.16;4966305;28;20408;-76
2022/09/30 07:26:32;;;;;;;0.10;0.10;;;;;;;5.49;100.00;96027.41;4955109;28;20796;-76
2022/09/30 07:29:18;;;;;;;0.10;0.10;;;;;;;5.59;100.00;96029.50;4965616;28;20385;-76
2022/09/30 07:32:04;;;;;;;0.10;0.10;;;;;;;5.72;100.00;96042.59;4966836;28;20370;-76
2022/09/30 07:34:50;;;;;;;0.10;0.10;;;;;;;5.87;100.00;96040.31;4967160;28;20046;-76
2022/09/30 07:37:36;;;;;;;0.17;0.10;;;;;;;6.00;100.00;96039.31;4965997;28;20563;-76
2022/09/30 07:40:22;;;;;;;0.20;0.10;;;;;;;6.18;100.00;96041.06;4967102;28;20043;-76
2022/09/30 07:43:08;;;;;;;0.20;0.20;;;;;;;6.17;100.00;96035.97;4964723;28;20046;-76
2022/09/30 07:45:55;;;;;;;0.10;0.10;;;;;;;6.18;100.00;96041.06;4964243;28;20105;-76
2022/09/30 07:48:48;;;;;;;0.10;0.10;;;;;;;6.23;100.00;96043.84;4965853;28;20145;-76
2022/09/30 07:51:40;;;;;;;0.10;0.10;;;;;;;6.28;100.00;96033.31;4950194;28;20497;-76
2022/09/30 07:54:28;;;;;;;0.17;0.15;;;;;;;6.43;100.00;96036.31;4952575;28;20682;-76
2022/09/30 07:57:14;;;;;;;0.10;0.10;;;;;;;6.85;100.00;96036.16;4965028;28;20051;-76
2022/09/30 08:00:00;;;;;;;0.20;0.20;;;;;;;6.95;100.00;96030.22;4962337;28;20098;-76
2022/09/30 08:02:46;;;;;;;0.13;0.13;;;;;;;7.01;100.00;96042.59;4963480;28;20505;-76
2022/09/30 08:05:38;;;;;;;0.10;0.10;;;;;;;7.34;100.00;96049.06;4965739;28;20062;-75
2022/09/30 08:08:24;;;;;;;0.13;0.13;;;;;;;7.50;100.00;96049.09;4962964;28;20497;-76
2022/09/30 08:11:11;;;;;;;0.10;0.10;;;;;;;7.70;100.00;96051.31;4962373;28;20765;-76
2022/09/30 08:13:57;;;;;;;0.13;0.13;;;;;;;7.84;100.00;96046.50;4965205;28;20657;-76
2022/09/30 08:16:43;;;;;;;0.10;0.10;;;;;;;7.96;100.00;96046.44;4965383;28;20038;-76
2022/09/30 08:19:30;;;;;;;0.10;0.10;;;;;;;8.05;100.00;96052.97;4963849;28;20043;-75
2022/09/30 08:22:15;;;;;;;0.10;0.10;;;;;;;8.01;100.00;96052.63;4961332;28;20493;-76
2022/09/30 08:25:01;;;;;;;0.10;0.10;;;;;;;8.14;100.00;96050.72;4961153;28;20058;-75
2022/09/30 08:27:48;;;;;;;0.10;0.10;;;;;;;8.38;100.00;96049.50;4965892;28;20461;-76
2022/09/30 08:30:34;;;;;;;0.10;0.10;;;;;;;8.55;100.00;96036.94;4966771;28;20145;-75
2022/09/30 08:33:20;;;;;;;0.17;0.17;;;;;;;8.73;100.00;96045.75;4953495;28;20439;-76
2022/09/30 08:36:12;;;;;;;0.20;0.20;;;;;;;8.89;100.00;96047.56;4967950;28;20424;-76
2022/09/30 08:38:58;;;;;;;0.10;0.10;;;;;;;8.97;100.00;96047.13;4957217;28;20636;-76
2022/09/30 08:41:58;;;;;;;0.20;0.20;;;;;;;9.06;100.00;96050.97;4966461;28;20136;-76
2022/09/30 08:44:46;;;;;;;0.10;0.10;;;;;;;9.15;100.00;96048.66;4966678;28;20120;-76
2022/09/30 08:47:35;;;;;;;0.10;0.10;;;;;;;9.23;100.00;96066.13;4971385;28;20053;-75
2022/09/30 08:50:27;;;;;;;0.10;0.10;;;;;;;9.31;100.00;96071.00;4925373;28;20334;-76
2022/09/30 08:53:24;;;;;;;0.20;0.10;;;;;;;9.45;100.00;96058.91;4966678;28;20050;-75
2022/09/30 08:56:21;;;;;;;0.10;0.10;;;;;;;9.60;100.00;96061.72;4967387;28;20085;-76
2022/09/30 08:59:34;;;;;;;0.10;0.10;;;;;;;9.62;100.00;96064.16;4967095;28;20042;-76
2022/09/30 09:02:26;;;;;;;0.10;0.10;;;;;;;9.65;100.00;96068.97;4955246;28;20053;-76
2022/09/30 09:06:10;;;;;;;0.10;0.10;;;;;;;9.74;100.00;96073.63;4968660;28;20602;-76
2022/09/30 09:09:10;;;;;;;0.15;0.10;;;;;;;9.96;100.00;96080.75;4895155;29;20081;-76
2022/09/30 09:12:08;;;;;;;0.10;0.10;;;;;;;10.09;100.00;96067.00;4893513;29;20036;-76
2022/09/30 09:15:26;;;;;;;0.10;0.10;;;;;;;10.15;100.00;96074.00;4966968;28;20559;-75
2022/09/30 09:18:57;;;;;;;0.10;0.10;;;;;;;10.33;100.00;96076.31;4968422;28;20046;-76
2022/09/30 09:21:59;;;;;;;0.10;0.10;;;;;;;10.52;100.00;96060.69;4966166;28;20564;-76
2022/09/30 09:24:49;;;;;;;0.10;0.10;;;;;;;10.64;100.00;96068.50;4970006;28;20054;-76
2022/09/30 09:27:58;;;;;;;0.10;0.10;;;;;;;10.70;100.00;96059.44;4967893;28;20547;-76
2022/09/30 09:30:50;;;;;;;0.10;0.10;;;;;;;10.75;100.00;96061.34;4967882;28;20683;-76
2022/09/30 09:33:40;;;;;;;0.10;0.10;;;;;;;10.94;100.00;96064.41;4966764;28;20496;-76
2022/09/30 09:36:33;;;;;;;0.10;0.10;;;;;;;11.25;100.00;96049.28;4966136;28;20046;-76
2022/09/30 09:39:26;;;;;;;0.10;0.10;;;;;;;11.38;100.00;96054.16;4964896;28;20556;-76
2022/09/30 09:42:26;;;;;;;0.10;0.10;;;;;;;11.96;100.00;96061.00;4967109;28;20043;-76
2022/09/30 09:45:24;;;;;;;0.10;0.10;;;;;;;12.16;100.00;96048.69;4957997;28;20645;-76
2022/09/30 09:48:14;;;;;;;0.10;0.10;;;;;;;11.89;100.00;96051.59;4966729;28;20050;-76
2022/09/30 09:51:27;;;;;;;0.10;0.10;;;;;;;11.31;100.00;96062.44;4938371;28;20058;-76
2022/09/30 09:54:17;;;;;;;0.10;0.10;;;;;;;11.21;100.00;96050.88;4967750;28;20061;-76
2022/09/30 09:57:08;;;;;;;0.20;0.20;;;;;;;11.59;100.00;96053.13;4967594;28;20042;-76
2022/09/30 10:01:08;;;;;;;0.10;0.10;;;;;;;11.36;100.00;96058.94;4968544;28;20153;-76
2022/09/30 10:03:20;;;;;;;0.10;0.10;;;;;;;11.28;100.00;96057.56;4967151;28;20047;-76
2022/09/30 10:06:08;;;;;;;0.10;0.10;;;;;;;11.30;100.00;96049.31;4966359;28;20081;-76
2022/09/30 10:08:55;;;;;;;0.15;0.15;;;;;;;13.52;100.00;96049.44;4956171;28;20243;-76
2022/09/30 10:11:41;;;;;;;0.10;0.10;;;;;;;14.69;92.42;96039.75;4969905;28;20736;-76
2022/09/30 10:14:27;;;;;;;0.20;0.20;;;;;;;14.62;96.62;96047.34;4966155;28;20058;-75
2022/09/30 10:17:28;;;;;;;0.13;0.13;;;;;;;17.83;58.69;96037.03;4966114;28;20050;-76
2022/09/30 10:20:14;;;;;;;0.20;0.20;;;;;;;19.24;49.02;96045.44;4965773;28;20585;-76
2022/09/30 10:23:18;;;;;;;0.20;0.20;;;;;;;21.37;44.98;96037.91;4968682;28;20082;-76
2022/09/30 10:26:17;;;;;;;0.20;0.20;;;;;;;22.97;38.78;96040.41;4957334;28;20372;-76
2022/09/30 10:29:28;;;;;;;0.20;0.20;;;;;;;24.45;35.82;96041.94;4965691;28;20049;-76
2022/09/30 10:32:14;;;;;;;0.20;0.20;;;;;;;25.81;35.07;96040.78;4953262;28;20467;-76
2022/09/30 10:35:10;;;;;;;0.20;0.20;;;;;;;26.19;32.95;96034.56;4968365;28;20662;-76
2022/09/30 10:37:59;;;;;;;0.20;0.20;;;;;;;26.75;33.86;96045.13;4967873;28;20101;-76
2022/09/30 10:40:49;;;;;;;0.20;0.20;;;;;;;28.17;31.18;96041.28;4967728;28;20606;-76
2022/09/30 10:43:43;;;;;;;0.10;0.10;;;;;;;25.61;30.38;96050.06;4970936;28;20259;-77
2022/09/30 10:46:37;;;;;;;0.10;0.10;;;;;;;25.62;30.54;96049.72;4968289;28;20743;-76
2022/09/30 10:49:38;;;;;;;0.20;0.20;;;;;;;26.01;28.84;96045.16;4938159;28;20042;-78
2022/09/30 10:52:25;;;;;;;;;;;;;;;24.09;30.61;96046.34;4968397;28;20065;-76
2022/09/30 10:55:33;;;;;;;0.05;0.05;;;;;;;22.80;34.47;96054.19;4965279;28;19922;-76
2022/09/30 10:58:24;;;;;;;0.20;0.20;;;;;;;25.22;33.97;96047.97;4957039;28;20498;-76
2022/09/30 11:01:31;;;;;;;0.10;0.10;;;;;;;28.19;27.37;96038.16;4965119;28;20061;-77
2022/09/30 11:04:31;;;;;;;0.20;0.20;;;;;;;29.69;25.86;96040.59;4951838;28;20805;-76
2022/09/30 11:07:32;;;;;;;0.20;0.20;;;;;;;29.87;24.09;96046.25;4968657;28;20050;-77
2022/09/30 11:10:49;;;;;;;0.13;0.13;;;;;;;25.00;29.07;96054.00;4966356;28;20761;-76
2022/09/30 11:13:49;;;;;;;0.10;0.10;;;;;;;28.29;27.24;96043.00;4970405;28;20201;-77
2022/09/30 11:16:56;;;;;;;0.10;0.10;;;;;;;23.28;33.03;96055.47;4971470;28;20062;-76
2022/09/30 11:19:58;;;;;;;0.10;0.10;;;;;;;26.87;29.75;96052.44;4968278;28;20038;-76
2022/09/30 11:23:01;;;;;;;0.20;0.20;;;;;;;28.11;29.07;96041.97;4968872;28;20042;-77
2022/09/30 11:25:53;;;;;;;0.00;0.00;;;;;;;21.92;37.49;96045.13;4966805;28;20472;-76
2022/09/30 11:29:07;;;;;;;0.13;0.13;;;;;;;25.15;31.74;96036.03;4968112;28;20112;-76
2022/09/30 11:32:31;;;;;;;0.10;0.10;;;;;;;27.87;27.19;96033.00;4948355;28;20402;-76
2022/09/30 11:35:36;;;;;;;0.22;0.10;;;;;;;30.82;24.21;96019.56;4962033;28;20379;-77
2022/09/30 11:38:40;;;;;;;0.10;0.10;;;;;;;33.18;24.32;96018.03;4969697;28;20142;-77
2022/09/30 11:41:31;;;;;;;0.10;0.10;;;;;;;30.73;23.85;96022.69;4969810;28;20114;-77
2022/09/30 11:44:26;;;;;;;0.10;0.10;;;;;;;31.26;22.23;96033.09;4967627;28;20125;-76
2022/09/30 11:47:40;;;;;;;0.10;0.10;;;;;;;30.40;24.04;96032.00;4957760;28;20054;-77
2022/09/30 11:51:08;;;;;;;0.10;0.10;;;;;;;31.92;22.22;96022.47;4938947;28;20054;-77
2022/09/30 11:54:15;;;;;;;0.10;0.10;;;;;;;28.57;24.18;96023.34;4960303;28;20174;-77
2022/09/30 11:57:26;;;;;;;0.10;0.10;;;;;;;29.01;24.29;96028.16;4972692;28;20039;-77
2022/09/30 12:00:16;;;;;;;0.00;0.00;;;;;;;27.73;26.53;96028.06;4970488;28;20530;-77
2022/09/30 12:03:17;;;;;;;0.00;0.00;;;;;;;22.17;32.38;96029.72;4972617;28;20368;-77
2022/09/30 12:06:42;;;;;;;0.00;0.00;;;;;;;20.28;36.46;96040.22;4955025;28;20290;-76
2022/09/30 12:09:38;;;;;;;0.20;0.20;;;;;;;21.31;39.14;96047.38;4957318;28;20230;-76
2022/09/30 12:12:24;;;;;;;0.00;0.00;;;;;;;25.80;28.19;96020.81;4975610;28;20046;-77
2022/09/30 12:15:17;;;;;;;0.17;0.17;;;;;;;26.18;29.02;96022.03;4970647;28;20696;-77
2022/09/30 12:18:10;;;;;;;0.10;0.10;;;;;;;29.05;27.08;96026.25;4973159;28;20635;-77
2022/09/30 12:21:01;;;;;;;0.10;0.10;;;;;;;28.40;25.04;96026.66;4963306;28;20073;-77
2022/09/30 12:23:59;;;;;;;0.10;0.10;;;;;;;28.32;26.15;96025.75;4972237;28;20545;-77
2022/09/30 12:26:46;;;;;;;0.10;0.10;;;;;;;31.18;24.19;96020.44;4972172;28;20355;-77
2022/09/30 12:33:00;;;;;;;0.10;0.10;;;;;;;32.18;21.63;96023.97;4972872;28;20089;-77
2022/09/30 12:36:21;;;;;;;0.10;0.10;;;;;;;33.23;21.02;96025.91;4973803;28;20031;-77
2022/09/30 12:39:24;;;;;;;0.10;0.10;;;;;;;35.44;19.00;96013.25;4973314;28;20039;-77
2022/09/30 12:42:48;;;;;;;0.10;0.10;;;;;;;33.51;19.68;96025.75;4974720;28;20347;-77
2022/09/30 12:46:08;;;;;;;0.10;0.10;;;;;;;34.41;19.64;96033.28;4961286;28;20122;-77
2022/09/30 12:49:00;;;;;;;0.10;0.10;;;;;;;36.70;18.88;96026.50;4974883;28;20726;-77
2022/09/30 12:51:54;;;;;;;0.00;0.00;;;;;;;32.79;20.06;96027.34;4972246;28;20059;-77
2022/09/30 12:54:54;;;;;;;0.10;0.10;;;;;;;29.19;22.34;96033.84;4973339;28;20645;-77
2022/09/30 12:57:42;;;;;;;0.00;0.00;;;;;;;32.28;20.55;96025.91;4976024;28;20046;-77
2022/09/30 13:00:33;;;;;;;0.10;0.10;;;;;;;34.12;20.18;96022.44;4975068;28;20406;-77
2022/09/30 13:03:19;;;;;;;0.10;0.10;;;;;;;33.64;20.49;96028.03;4958008;28;20050;-77
2022/09/30 13:06:05;;;;;;;0.10;0.10;;;;;;;34.83;19.61;96023.63;4973778;28;20130;-77
2022/09/30 13:09:10;;;;;;;0.10;0.10;;;;;;;36.15;18.11;96016.03;4971206;28;20366;-77
2022/09/30 13:11:58;;;;;;;0.10;0.10;;;;;;;37.38;17.30;96021.50;4973048;28;20027;-77
2022/09/30 13:14:44;;;;;;;0.10;0.10;;;;;;;34.93;19.25;96022.72;4971421;28;20049;-78
2022/09/30 13:17:31;;;;;;;0.10;0.10;;;;;;;35.62;18.09;96014.94;4972330;28;20046;-77
2022/09/30 13:21:05;;;;;;;0.00;0.00;;;;;;;34.43;16.43;96028.09;4973294;28;20548;-78
2022/09/30 13:23:53;;;;;;;0.00;0.00;;;;;;;35.03;17.46;96019.00;4971935;28;20560;-77
2022/09/30 13:26:43;;;;;;;0.10;0.10;;;;;;;32.76;17.63;96019.03;4972141;28;20042;-77
2022/09/30 13:29:34;;;;;;;0.00;0.00;;;;;;;34.36;17.49;96031.69;4974787;28;20046;-77
2022/09/30 13:32:36;;;;;;;0.10;0.10;;;;;;;34.52;16.35;96031.16;4971793;28;20050;-77
2022/09/30 13:35:33;;;;;;;0.10;0.10;;;;;;;31.28;18.96;96026.03;4971524;28;20509;-78
2022/09/30 13:38:33;;;;;;;0.20;0.20;;;;;;;32.14;18.69;96017.66;4971170;28;20047;-77
2022/09/30 13:41:23;;;;;;;0.10;0.10;;;;;;;34.59;18.96;96020.75;4973949;28;20553;-77